createdAt,value
2023-05-13T00:08:54.613Z,3.00
2023-05-13T00:18:59.305Z,3.03
2023-05-13T00:29:02.501Z,3.43
2023-05-13T00:39:07.172Z,6.43
2023-05-13T00:49:10.400Z,6.57
2023-05-13T00:59:14.994Z,7.60
2023-05-13T01:09:27.285Z,6.60
2023-05-13T01:19:43.037Z,7.00
2023-05-13T01:29:49.006Z,6.87
2023-05-13T01:39:58.008Z,6.60
2023-05-13T01:50:02.728Z,6.97
2023-05-13T02:00:08.088Z,6.37
2023-05-13T02:10:18.974Z,7.33
2023-05-13T02:20:22.596Z,7.53
2023-05-13T02:30:28.548Z,7.47
2023-05-13T02:40:31.901Z,7.00
2023-05-13T02:50:37.290Z,6.97
2023-05-13T03:00:40.724Z,9.53
2023-05-13T03:10:45.389Z,10.27
2023-05-13T03:20:49.025Z,9.00
2023-05-13T03:30:53.820Z,8.67
2023-05-13T03:40:57.098Z,8.77
2023-05-13T03:51:03.200Z,9.77
2023-05-13T04:01:07.616Z,8.47
2023-05-13T04:11:12.291Z,8.40
2023-05-13T04:21:15.697Z,7.77
2023-05-13T04:31:21.324Z,8.00
2023-05-13T04:41:24.673Z,7.50
2023-05-13T04:51:29.361Z,6.90
2023-05-13T05:01:33.376Z,7.57
2023-05-13T05:11:38.944Z,7.22
2023-05-13T05:21:42.490Z,7.10
2023-05-13T05:31:48.383Z,7.47
2023-05-13T05:41:51.790Z,7.15
2023-05-13T05:51:56.502Z,6.30
2023-05-13T06:02:01.432Z,5.72
2023-05-13T06:12:06.714Z,6.78
2023-05-13T06:22:10.047Z,7.88
2023-05-13T06:32:14.727Z,6.20
2023-05-13T06:42:17.925Z,5.88
2023-05-13T06:52:25.676Z,5.68
2023-05-13T07:02:28.878Z,7.28
2023-05-13T07:12:34.218Z,6.05
2023-05-13T07:22:37.742Z,6.32
2023-05-13T07:32:42.475Z,6.13
2023-05-13T07:42:45.649Z,6.10
2023-05-13T07:52:51.787Z,8.13
2023-05-13T08:02:55.114Z,6.22
2023-05-13T08:13:01.042Z,7.47
2023-05-13T08:23:04.157Z,6.78
2023-05-13T08:33:08.942Z,6.60
2023-05-13T08:43:16.124Z,6.78
2023-05-13T08:53:23.800Z,7.22
2023-05-13T09:03:29.228Z,6.32
2023-05-13T09:13:33.715Z,6.53
2023-05-13T09:23:37.573Z,6.57
2023-05-13T09:33:53.567Z,8.27
2023-05-13T09:43:56.993Z,7.88
2023-05-13T09:54:07.051Z,6.00
2023-05-13T10:04:10.253Z,5.82
2023-05-13T10:14:15.120Z,5.18
2023-05-13T10:24:18.569Z,5.30
2023-05-13T10:34:24.386Z,4.10
2023-05-13T10:44:27.648Z,3.95
2023-05-13T10:54:38.587Z,3.40
2023-05-13T11:04:59.273Z,3.50
2023-05-13T11:15:03.873Z,2.55
2023-05-13T11:25:09.346Z,3.88
2023-05-13T11:35:15.198Z,3.47
2023-05-13T11:45:19.100Z,3.80
2023-05-13T11:55:31.146Z,3.30
2023-05-13T12:05:34.392Z,2.65
2023-05-13T12:15:39.224Z,3.95
2023-05-13T12:25:45.102Z,3.25
2023-05-13T12:35:52.127Z,3.20
2023-05-13T12:45:58.138Z,3.42
2023-05-13T12:56:02.896Z,3.65
2023-05-13T13:06:06.478Z,4.88
2023-05-13T13:16:11.094Z,3.10
2023-05-13T13:26:14.278Z,2.95
2023-05-13T13:36:19.387Z,3.47
2023-05-13T13:46:22.698Z,3.15
2023-05-13T13:56:27.274Z,3.83
2023-05-13T14:06:31.178Z,3.80
2023-05-13T14:16:36.255Z,4.20
2023-05-13T14:26:39.469Z,3.80
2023-05-13T14:36:44.062Z,3.50
2023-05-13T14:46:47.320Z,3.50
2023-05-13T14:56:52.961Z,3.80
2023-05-13T15:06:56.652Z,2.70
2023-05-13T15:17:01.375Z,4.38
2023-05-13T15:27:04.714Z,2.50
2023-05-13T15:37:09.276Z,2.83
2023-05-13T15:47:12.703Z,3.45
2023-05-13T15:57:19.093Z,3.30
2023-05-13T16:07:23.797Z,3.40
2023-05-13T16:17:28.528Z,3.92
2023-05-13T16:27:32.378Z,7.63
2023-05-13T16:37:36.935Z,4.97
2023-05-13T16:47:40.177Z,5.55
2023-05-13T16:57:44.731Z,4.57
2023-05-13T17:07:47.915Z,4.18
2023-05-13T17:17:52.469Z,3.63
2023-05-13T17:27:55.695Z,1.70
2023-05-13T17:38:00.198Z,2.20
2023-05-13T17:48:03.485Z,3.50
2023-05-13T17:58:08.152Z,2.90
2023-05-13T18:08:11.292Z,2.58
2023-05-13T18:18:17.589Z,2.47
2023-05-13T18:28:20.820Z,2.38
2023-05-13T18:38:25.387Z,3.00
2023-05-13T18:48:28.527Z,2.95
2023-05-13T18:58:33.068Z,2.08
2023-05-13T19:08:36.264Z,2.90
2023-05-13T19:18:40.846Z,2.90
2023-05-13T19:28:44.760Z,2.63
2023-05-13T19:38:49.718Z,2.30
2023-05-13T19:48:52.926Z,2.58
2023-05-13T19:58:57.493Z,2.35
2023-05-13T20:09:00.781Z,2.20
2023-05-13T20:19:05.371Z,3.53
2023-05-13T20:29:08.591Z,6.38
2023-05-13T20:39:13.299Z,3.53
2023-05-13T20:49:16.744Z,2.80
2023-05-13T20:59:21.244Z,3.25
2023-05-13T21:09:24.430Z,5.47
2023-05-13T21:19:28.967Z,4.10
2023-05-13T21:29:32.148Z,4.13
2023-05-13T21:39:36.635Z,4.70
2023-05-13T21:49:39.767Z,3.72
2023-05-13T21:59:44.238Z,4.35
2023-05-13T22:09:49.676Z,4.88
2023-05-13T22:19:54.934Z,3.15
2023-05-13T22:29:58.173Z,3.83
2023-05-13T22:40:02.657Z,4.75
2023-05-13T22:50:06.675Z,5.18
2023-05-13T23:00:13.000Z,8.60
2023-05-13T23:10:16.209Z,8.32
2023-05-13T23:20:20.956Z,13.13
2023-05-13T23:30:24.502Z,12.10
2023-05-13T23:40:29.357Z,11.35
2023-05-13T23:50:32.633Z,12.05
